createdAt,value
2023-03-15T00:00:22.328Z,1.30
2023-03-15T00:01:26.514Z,1.77
2023-03-15T00:02:28.090Z,2.78
2023-03-15T00:03:29.807Z,1.80
2023-03-15T00:04:34.756Z,4.18
2023-03-15T00:05:36.415Z,1.63
2023-03-15T00:06:38.017Z,0.80
2023-03-15T00:07:39.715Z,1.15
2023-03-15T00:08:41.315Z,3.80
2023-03-15T00:09:42.937Z,1.13
2023-03-15T00:10:45.564Z,3.05
2023-03-15T00:11:47.161Z,2.95
2023-03-15T00:12:48.893Z,0.73
2023-03-15T00:13:51.703Z,0.88
2023-03-15T00:14:53.337Z,0.98
2023-03-15T00:15:57.247Z,1.53
2023-03-15T00:16:58.871Z,0.65
2023-03-15T00:18:03.282Z,2.58
2023-03-15T00:19:04.979Z,1.77
2023-03-15T00:20:07.438Z,0.85
2023-03-15T00:21:09.065Z,0.65
2023-03-15T00:22:10.895Z,1.60
2023-03-15T00:23:12.774Z,3.58
2023-03-15T00:24:14.471Z,2.03
2023-03-15T00:25:16.078Z,0.77
2023-03-15T00:26:17.744Z,2.07
2023-03-15T00:27:19.344Z,3.90
2023-03-15T00:28:21.239Z,1.88
2023-03-15T00:29:22.860Z,1.00
2023-03-15T00:30:24.456Z,1.73
2023-03-15T00:31:26.234Z,3.25
2023-03-15T00:32:27.893Z,1.65
2023-03-15T00:33:29.602Z,1.75
2023-03-15T00:34:33.805Z,0.88
2023-03-15T00:35:38.853Z,1.25
2023-03-15T00:36:43.644Z,0.60
2023-03-15T00:37:45.375Z,1.70
2023-03-15T00:38:47.082Z,1.20
2023-03-15T00:39:48.784Z,1.38
2023-03-15T00:40:50.393Z,4.03
2023-03-15T00:41:56.803Z,1.13
2023-03-15T00:42:58.590Z,1.13
2023-03-15T00:44:00.231Z,3.20
2023-03-15T00:45:01.836Z,14.57
2023-03-15T00:46:04.095Z,10.95
2023-03-15T00:47:05.758Z,3.37
2023-03-15T00:48:07.380Z,3.40
2023-03-15T00:49:09.043Z,3.28
2023-03-15T00:50:11.060Z,1.20
2023-03-15T00:51:17.150Z,3.42
2023-03-15T00:52:19.012Z,0.90
2023-03-15T00:53:22.583Z,2.22
2023-03-15T00:54:24.998Z,2.88
2023-03-15T00:55:27.136Z,4.68
2023-03-15T00:56:30.213Z,8.90
2023-03-15T00:57:34.727Z,5.73
2023-03-15T00:58:36.576Z,5.25
2023-03-15T00:59:38.259Z,2.60
2023-03-15T01:00:39.973Z,4.70
2023-03-15T01:01:44.770Z,4.75
2023-03-15T01:02:47.887Z,5.13
2023-03-15T01:03:49.810Z,2.35
2023-03-15T01:04:51.580Z,1.52
2023-03-15T01:05:53.204Z,1.63
2023-03-15T01:06:54.886Z,1.42
2023-03-15T01:07:56.533Z,2.00
2023-03-15T01:08:58.723Z,1.27
2023-03-15T01:10:01.626Z,1.33
2023-03-15T01:11:08.139Z,1.52
2023-03-15T01:12:09.769Z,6.70
2023-03-15T01:13:11.425Z,9.45
2023-03-15T01:14:13.072Z,0.95
2023-03-15T01:15:15.056Z,10.80
2023-03-15T01:16:16.685Z,6.50
2023-03-15T01:17:18.306Z,1.80
2023-03-15T01:18:19.957Z,4.70
2023-03-15T01:19:21.545Z,0.75
2023-03-15T01:20:23.135Z,0.80
2023-03-15T01:21:24.838Z,0.52
2023-03-15T01:22:26.624Z,3.17
2023-03-15T01:23:28.266Z,2.25
2023-03-15T01:24:29.947Z,0.73
2023-03-15T01:25:31.655Z,0.90
2023-03-15T01:26:33.395Z,1.08
2023-03-15T01:27:35.261Z,0.65
2023-03-15T01:28:36.867Z,0.77
2023-03-15T01:29:38.463Z,1.05
2023-03-15T01:30:40.108Z,0.70
2023-03-15T01:31:41.844Z,0.70
2023-03-15T01:32:43.606Z,2.00
2023-03-15T01:33:45.235Z,2.80
2023-03-15T01:34:46.924Z,3.30
2023-03-15T01:35:48.659Z,1.30
2023-03-15T01:36:52.577Z,0.70
2023-03-15T01:37:54.177Z,1.73
2023-03-15T01:38:55.777Z,0.70
2023-03-15T01:39:57.417Z,0.90
2023-03-15T01:40:59.121Z,1.70
2023-03-15T01:42:00.777Z,1.00
2023-03-15T01:43:05.239Z,0.50
2023-03-15T01:44:12.318Z,0.50
2023-03-15T01:45:50.593Z,1.10
2023-03-15T01:46:52.340Z,0.73
2023-03-15T01:47:53.971Z,0.85
2023-03-15T01:48:58.714Z,1.20
2023-03-15T01:50:03.168Z,0.40
2023-03-15T01:51:08.719Z,1.10
2023-03-15T01:52:13.157Z,0.68
2023-03-15T01:53:14.761Z,1.52
2023-03-15T01:54:24.632Z,2.67
2023-03-15T01:55:26.266Z,1.45
2023-03-15T01:56:27.922Z,0.82
2023-03-15T01:57:36.350Z,1.00
2023-03-15T01:58:38.547Z,0.70
2023-03-15T01:59:43.265Z,1.23
2023-03-15T02:00:44.932Z,1.30
2023-03-15T02:01:47.224Z,2.38
2023-03-15T02:02:57.580Z,1.35
2023-03-15T02:04:09.620Z,0.65
2023-03-15T02:05:11.507Z,0.57
2023-03-15T02:06:18.136Z,0.40
2023-03-15T02:07:20.002Z,1.00
2023-03-15T02:08:21.668Z,2.08
2023-03-15T02:09:23.268Z,1.13
2023-03-15T02:10:31.853Z,1.27
2023-03-15T02:11:33.431Z,0.60
2023-03-15T02:12:37.285Z,1.02
2023-03-15T02:13:38.913Z,0.90
2023-03-15T02:14:40.578Z,0.70
2023-03-15T02:15:46.874Z,0.82
2023-03-15T02:16:48.852Z,0.75
2023-03-15T02:17:50.694Z,1.50
2023-03-15T02:18:52.308Z,2.90
2023-03-15T02:20:04.370Z,1.20
2023-03-15T02:21:15.900Z,1.13
2023-03-15T02:22:27.222Z,1.67
2023-03-15T02:23:28.853Z,1.42
2023-03-15T02:24:55.865Z,1.10
2023-03-15T02:26:00.645Z,1.20
2023-03-15T02:27:02.488Z,0.73
2023-03-15T02:28:05.596Z,0.70
2023-03-15T02:29:07.218Z,0.90
2023-03-15T02:30:09.177Z,0.65
2023-03-15T02:31:10.809Z,1.52
2023-03-15T02:32:12.464Z,1.10
2023-03-15T02:33:28.321Z,0.60
2023-03-15T02:34:30.352Z,1.42
2023-03-15T02:35:32.497Z,0.90
2023-03-15T02:36:34.737Z,1.27
2023-03-15T02:37:36.404Z,0.57
2023-03-15T02:38:38.074Z,0.80
2023-03-15T02:39:39.702Z,0.95
2023-03-15T02:40:41.347Z,0.57
2023-03-15T02:41:45.090Z,1.02
2023-03-15T02:42:46.886Z,0.60
2023-03-15T02:43:48.959Z,0.70
2023-03-15T02:44:50.556Z,1.00
2023-03-15T02:45:52.185Z,0.55
2023-03-15T02:46:53.907Z,0.80
2023-03-15T02:47:55.566Z,0.93
2023-03-15T02:48:57.178Z,0.90
2023-03-15T02:49:58.765Z,0.63
2023-03-15T02:51:02.147Z,0.73
2023-03-15T02:52:04.028Z,0.88
2023-03-15T02:53:05.888Z,0.82
2023-03-15T02:54:07.521Z,0.90
2023-03-15T02:55:09.413Z,0.90
2023-03-15T02:56:11.007Z,1.00
2023-03-15T02:57:12.996Z,1.33
2023-03-15T02:58:14.630Z,1.60
2023-03-15T02:59:16.241Z,1.50
2023-03-15T03:00:18.198Z,1.88
2023-03-15T03:01:20.083Z,1.10
2023-03-15T03:02:21.835Z,0.70
2023-03-15T03:03:23.449Z,0.90
2023-03-15T03:04:25.105Z,0.80
2023-03-15T03:05:26.894Z,0.60
2023-03-15T03:06:28.465Z,1.08
2023-03-15T03:07:30.060Z,2.00
2023-03-15T03:08:31.789Z,0.82
2023-03-15T03:09:33.472Z,0.90
2023-03-15T03:10:35.086Z,0.90
2023-03-15T03:11:36.695Z,1.00
2023-03-15T03:12:38.288Z,1.20
2023-03-15T03:13:40.374Z,1.00
2023-03-15T03:14:43.415Z,0.97
2023-03-15T03:15:45.614Z,0.90
2023-03-15T03:16:47.297Z,1.00
2023-03-15T03:17:48.934Z,1.02
2023-03-15T03:18:51.507Z,1.15
2023-03-15T03:19:53.169Z,1.00
2023-03-15T03:20:58.280Z,1.20
2023-03-15T03:22:00.187Z,0.90
2023-03-15T03:23:06.087Z,1.15
2023-03-15T03:24:07.759Z,1.27
2023-03-15T03:25:12.540Z,0.93
2023-03-15T03:26:16.859Z,1.20
2023-03-15T03:27:18.771Z,0.90
2023-03-15T03:28:21.400Z,1.13
2023-03-15T03:29:22.984Z,0.90
2023-03-15T03:30:24.717Z,1.05
2023-03-15T03:31:27.451Z,0.70
2023-03-15T03:32:29.146Z,1.17
2023-03-15T03:33:30.793Z,0.80
2023-03-15T03:34:32.389Z,0.82
2023-03-15T03:35:34.109Z,0.80
2023-03-15T03:36:35.760Z,0.93
2023-03-15T03:37:37.363Z,1.17
2023-03-15T03:38:43.083Z,0.80
2023-03-15T03:39:44.921Z,1.00
2023-03-15T03:40:46.561Z,0.70
2023-03-15T03:41:48.191Z,0.70
2023-03-15T03:42:49.769Z,0.70
2023-03-15T03:43:52.465Z,0.70
2023-03-15T03:44:54.595Z,0.77
2023-03-15T03:45:56.188Z,0.80
2023-03-15T03:46:57.809Z,0.70
2023-03-15T03:47:59.991Z,0.60
2023-03-15T03:49:01.573Z,0.80
2023-03-15T03:50:03.245Z,0.70
2023-03-15T03:51:05.082Z,0.40
2023-03-15T03:52:06.935Z,0.50
2023-03-15T03:53:09.369Z,0.52
2023-03-15T03:54:11.007Z,0.63
2023-03-15T03:55:15.644Z,1.15
2023-03-15T03:56:17.252Z,0.50
2023-03-15T03:57:18.841Z,0.60
2023-03-15T03:58:21.057Z,0.40
2023-03-15T03:59:22.648Z,0.60
2023-03-15T04:00:24.359Z,0.80
2023-03-15T04:01:26.136Z,0.85
2023-03-15T04:02:28.139Z,0.50
2023-03-15T04:03:30.044Z,0.55
2023-03-15T04:04:31.813Z,0.50
2023-03-15T04:05:33.712Z,0.50
2023-03-15T04:06:35.408Z,0.30
2023-03-15T04:07:37.450Z,0.55
2023-03-15T04:08:39.096Z,0.30
2023-03-15T04:09:41.982Z,0.93
2023-03-15T04:10:43.570Z,0.50
2023-03-15T04:11:45.230Z,0.50
2023-03-15T04:12:46.807Z,0.38
2023-03-15T04:13:49.413Z,0.40
2023-03-15T04:14:51.304Z,0.50
2023-03-15T04:15:57.795Z,0.30
2023-03-15T04:16:59.621Z,0.50
2023-03-15T04:18:05.830Z,0.30
2023-03-15T04:19:07.826Z,0.50
2023-03-15T04:20:12.200Z,0.30
2023-03-15T04:21:13.817Z,0.40
2023-03-15T04:22:15.577Z,0.22
2023-03-15T04:23:19.288Z,0.30
2023-03-15T04:24:20.889Z,0.60
2023-03-15T04:25:26.568Z,0.30
2023-03-15T04:26:28.577Z,0.30
2023-03-15T04:27:30.788Z,0.20
2023-03-15T04:28:32.466Z,0.52
2023-03-15T04:29:34.103Z,0.40
2023-03-15T04:30:35.693Z,0.40
2023-03-15T04:31:37.827Z,0.35
2023-03-15T04:32:39.594Z,0.50
2023-03-15T04:33:41.212Z,0.50
2023-03-15T04:34:42.965Z,0.40
2023-03-15T04:35:44.595Z,0.30
2023-03-15T04:36:46.215Z,0.30
2023-03-15T04:37:47.800Z,0.30
2023-03-15T04:38:49.492Z,0.30
2023-03-15T04:39:52.571Z,0.60
2023-03-15T04:40:54.978Z,0.40
2023-03-15T04:41:56.615Z,0.60
2023-03-15T04:42:58.293Z,0.45
2023-03-15T04:43:59.879Z,0.30
2023-03-15T04:45:01.537Z,0.47
2023-03-15T04:46:03.190Z,0.70
2023-03-15T04:47:05.029Z,0.70
2023-03-15T04:48:06.766Z,0.60
2023-03-15T04:49:08.611Z,0.65
2023-03-15T04:50:10.821Z,1.00
2023-03-15T04:51:12.420Z,0.68
2023-03-15T04:52:14.026Z,0.60
2023-03-15T04:53:15.640Z,0.50
2023-03-15T04:54:17.307Z,0.50
2023-03-15T04:55:19.028Z,0.60
2023-03-15T04:56:20.611Z,0.50
2023-03-15T04:57:22.253Z,0.60
2023-03-15T04:58:23.878Z,0.73
2023-03-15T04:59:25.614Z,0.65
2023-03-15T05:00:27.663Z,0.55
2023-03-15T05:01:31.298Z,0.70
2023-03-15T05:02:33.022Z,0.60
2023-03-15T05:03:34.616Z,0.90
2023-03-15T05:04:36.303Z,0.95
2023-03-15T05:05:37.936Z,1.00
2023-03-15T05:06:39.550Z,0.68
2023-03-15T05:07:41.165Z,0.80
2023-03-15T05:08:45.456Z,0.63
2023-03-15T05:09:48.095Z,0.75
2023-03-15T05:10:49.772Z,0.65
2023-03-15T05:11:51.372Z,0.80
2023-03-15T05:12:53.007Z,0.60
2023-03-15T05:13:54.669Z,0.80
2023-03-15T05:14:56.374Z,0.60
2023-03-15T05:15:58.130Z,0.63
2023-03-15T05:17:00.021Z,0.55
2023-03-15T05:18:01.645Z,0.80
2023-03-15T05:19:03.685Z,0.90
2023-03-15T05:20:12.593Z,0.90
2023-03-15T05:21:14.255Z,0.88
2023-03-15T05:22:16.015Z,1.00
2023-03-15T05:23:17.620Z,0.80
2023-03-15T05:24:19.211Z,0.95
2023-03-15T05:25:20.867Z,1.13
2023-03-15T05:26:24.883Z,1.10
2023-03-15T05:27:26.478Z,1.00
2023-03-15T05:28:28.269Z,0.90
2023-03-15T05:29:30.092Z,0.90
2023-03-15T05:30:31.927Z,1.00
2023-03-15T05:31:37.230Z,1.30
2023-03-15T05:32:40.659Z,1.10
2023-03-15T05:33:47.035Z,1.02
2023-03-15T05:34:48.905Z,1.10
2023-03-15T05:35:50.624Z,1.10
2023-03-15T05:36:52.413Z,1.10
2023-03-15T05:37:55.589Z,1.15
2023-03-15T05:38:57.339Z,1.50
2023-03-15T05:39:59.496Z,1.10
2023-03-15T05:41:02.059Z,1.00
2023-03-15T05:42:03.835Z,1.33
2023-03-15T05:43:05.455Z,1.23
2023-03-15T05:44:07.054Z,1.02
2023-03-15T05:45:09.082Z,1.30
2023-03-15T05:46:10.750Z,1.30
2023-03-15T05:47:12.436Z,1.45
2023-03-15T05:48:14.634Z,1.70
2023-03-15T05:49:16.288Z,1.48
2023-03-15T05:50:17.933Z,1.17
2023-03-15T05:51:19.778Z,1.88
2023-03-15T05:52:21.438Z,1.55
2023-03-15T05:53:23.054Z,1.63
2023-03-15T05:54:24.887Z,1.30
2023-03-15T05:55:26.574Z,1.50
2023-03-15T05:56:28.198Z,1.10
2023-03-15T05:57:29.857Z,1.50
2023-03-15T05:58:31.661Z,1.35
2023-03-15T05:59:33.375Z,1.92
2023-03-15T06:00:35.229Z,1.23
2023-03-15T06:01:36.919Z,1.92
2023-03-15T06:02:38.517Z,2.03
2023-03-15T06:03:40.197Z,1.70
2023-03-15T06:04:41.959Z,1.48
2023-03-15T06:05:43.895Z,1.98
2023-03-15T06:06:45.502Z,2.05
2023-03-15T06:07:47.135Z,1.80
2023-03-15T06:08:48.731Z,1.85
2023-03-15T06:09:52.148Z,2.20
2023-03-15T06:10:53.725Z,1.80
2023-03-15T06:11:55.666Z,1.75
2023-03-15T06:12:57.268Z,1.60
2023-03-15T06:13:58.835Z,2.50
2023-03-15T06:15:00.533Z,2.33
2023-03-15T06:16:02.408Z,2.00
2023-03-15T06:17:04.029Z,1.80
2023-03-15T06:18:05.718Z,1.90
2023-03-15T06:19:07.385Z,2.47
2023-03-15T06:20:09.842Z,2.20
2023-03-15T06:21:11.554Z,2.90
2023-03-15T06:22:13.152Z,2.08
2023-03-15T06:23:14.828Z,2.17
2023-03-15T06:24:16.526Z,2.28
2023-03-15T06:25:18.275Z,2.28
2023-03-15T06:26:20.034Z,2.30
2023-03-15T06:27:22.295Z,2.40
2023-03-15T06:28:23.960Z,2.72
2023-03-15T06:29:25.719Z,2.00
2023-03-15T06:30:27.958Z,2.38
2023-03-15T06:31:29.589Z,1.90
2023-03-15T06:32:31.326Z,1.90
2023-03-15T06:33:33.095Z,1.85
2023-03-15T06:34:34.813Z,1.70
2023-03-15T06:35:37.091Z,2.10
2023-03-15T06:36:38.853Z,2.75
2023-03-15T06:37:41.921Z,2.10
2023-03-15T06:38:43.581Z,2.03
2023-03-15T06:39:45.227Z,1.88
2023-03-15T06:40:46.805Z,2.10
2023-03-15T06:41:48.477Z,2.23
2023-03-15T06:42:50.449Z,2.13
2023-03-15T06:43:52.073Z,1.88
2023-03-15T06:44:53.662Z,2.00
2023-03-15T06:45:56.842Z,2.20
2023-03-15T06:46:58.575Z,2.28
2023-03-15T06:48:00.223Z,2.03
2023-03-15T06:49:01.821Z,2.15
2023-03-15T06:50:03.822Z,2.10
2023-03-15T06:51:05.999Z,2.33
2023-03-15T06:52:08.080Z,2.40
2023-03-15T06:53:09.684Z,2.47
2023-03-15T06:54:11.403Z,2.28
2023-03-15T06:55:18.163Z,2.20
2023-03-15T06:56:19.791Z,2.00
2023-03-15T06:57:21.477Z,2.33
2023-03-15T06:58:23.078Z,2.53
2023-03-15T06:59:24.770Z,2.20
2023-03-15T07:00:26.742Z,2.42
2023-03-15T07:01:28.454Z,2.80
2023-03-15T07:02:33.926Z,2.10
2023-03-15T07:03:35.596Z,2.00
2023-03-15T07:04:37.207Z,2.40
2023-03-15T07:05:39.181Z,2.17
2023-03-15T07:06:40.823Z,2.22
2023-03-15T07:07:42.425Z,1.88
2023-03-15T07:08:44.073Z,2.15
2023-03-15T07:09:45.688Z,2.20
2023-03-15T07:10:48.476Z,2.20
2023-03-15T07:11:50.092Z,2.30
2023-03-15T07:12:51.739Z,2.37
2023-03-15T07:13:53.341Z,1.88
2023-03-15T07:14:54.931Z,2.50
2023-03-15T07:15:56.860Z,2.40
2023-03-15T07:16:58.471Z,2.10
2023-03-15T07:18:00.633Z,2.45
2023-03-15T07:19:02.397Z,1.88
2023-03-15T07:20:06.028Z,2.20
2023-03-15T07:21:10.586Z,1.90
2023-03-15T07:22:12.181Z,2.42
2023-03-15T07:23:13.809Z,2.17
2023-03-15T07:24:15.492Z,2.67
2023-03-15T07:25:23.802Z,2.20
2023-03-15T07:26:25.469Z,2.22
2023-03-15T07:27:27.388Z,2.50
2023-03-15T07:28:29.113Z,2.50
2023-03-15T07:29:30.805Z,2.42
2023-03-15T07:30:32.379Z,2.55
2023-03-15T07:31:33.986Z,2.17
2023-03-15T07:32:35.761Z,2.35
2023-03-15T07:33:37.771Z,2.60
2023-03-15T07:34:39.486Z,2.42
2023-03-15T07:35:41.515Z,3.13
2023-03-15T07:36:43.154Z,2.53
2023-03-15T07:37:45.015Z,2.53
2023-03-15T07:38:46.684Z,2.03
2023-03-15T07:39:48.291Z,2.95
2023-03-15T07:40:49.959Z,2.40
2023-03-15T07:41:52.705Z,2.40
2023-03-15T07:42:54.351Z,2.42
2023-03-15T07:43:58.132Z,2.10
2023-03-15T07:45:00.117Z,2.20
2023-03-15T07:46:01.790Z,2.35
2023-03-15T07:47:03.504Z,2.40
2023-03-15T07:48:05.279Z,2.47
2023-03-15T07:49:06.944Z,2.50
2023-03-15T07:50:09.269Z,2.60
2023-03-15T07:51:10.926Z,3.50
2023-03-15T07:52:12.751Z,2.83
2023-03-15T07:53:14.408Z,2.38
2023-03-15T07:54:16.009Z,2.60
2023-03-15T07:55:17.866Z,2.67
2023-03-15T07:56:19.920Z,2.97
2023-03-15T07:57:21.653Z,2.28
2023-03-15T07:58:23.243Z,2.70
2023-03-15T07:59:25.043Z,2.35
2023-03-15T08:00:27.063Z,2.70
2023-03-15T08:01:28.971Z,2.60
2023-03-15T08:02:30.765Z,2.65
2023-03-15T08:03:32.485Z,2.30
2023-03-15T08:04:35.815Z,2.73
2023-03-15T08:05:38.639Z,2.55
2023-03-15T08:06:40.270Z,2.72
2023-03-15T08:07:42.043Z,2.38
2023-03-15T08:08:43.658Z,2.58
2023-03-15T08:09:45.282Z,2.50
2023-03-15T08:10:46.949Z,2.45
2023-03-15T08:11:48.631Z,2.67
2023-03-15T08:12:50.322Z,3.00
2023-03-15T08:13:51.974Z,2.40
2023-03-15T08:14:53.745Z,3.13
2023-03-15T08:15:55.448Z,2.53
2023-03-15T08:16:57.105Z,2.53
2023-03-15T08:18:00.032Z,2.58
2023-03-15T08:19:01.654Z,2.88
2023-03-15T08:20:03.296Z,2.30
2023-03-15T08:21:05.126Z,2.20
2023-03-15T08:22:06.926Z,2.97
2023-03-15T08:23:09.310Z,3.35
2023-03-15T08:24:12.098Z,2.53
2023-03-15T08:25:15.368Z,2.47
2023-03-15T08:26:16.955Z,3.50
2023-03-15T08:27:18.645Z,2.40
2023-03-15T08:28:20.326Z,2.72
2023-03-15T08:29:21.932Z,2.60
2023-03-15T08:30:23.590Z,2.60
2023-03-15T08:31:25.410Z,2.15
2023-03-15T08:32:27.113Z,2.38
2023-03-15T08:33:30.348Z,2.90
2023-03-15T08:34:34.288Z,3.42
2023-03-15T08:35:35.990Z,2.40
2023-03-15T08:36:37.916Z,2.63
2023-03-15T08:37:39.866Z,2.20
2023-03-15T08:38:41.924Z,2.95
2023-03-15T08:39:43.865Z,2.50
2023-03-15T08:40:46.888Z,2.63
2023-03-15T08:41:50.410Z,2.80
2023-03-15T08:42:53.002Z,2.42
2023-03-15T08:43:54.701Z,2.90
2023-03-15T08:44:59.566Z,2.88
2023-03-15T08:46:02.058Z,2.67
2023-03-15T08:47:05.217Z,2.75
2023-03-15T08:48:06.999Z,2.53
2023-03-15T08:49:08.594Z,2.80
2023-03-15T08:50:12.270Z,2.97
2023-03-15T08:51:14.766Z,2.20
2023-03-15T08:52:18.124Z,2.20
2023-03-15T08:53:19.986Z,2.25
2023-03-15T08:54:21.669Z,2.60
2023-03-15T08:55:23.416Z,2.13
2023-03-15T08:56:25.023Z,2.57
2023-03-15T08:57:26.819Z,2.15
2023-03-15T08:58:28.491Z,2.65
2023-03-15T08:59:32.055Z,2.20
2023-03-15T09:00:34.112Z,2.42
2023-03-15T09:01:36.074Z,2.42
2023-03-15T09:02:37.790Z,1.98
2023-03-15T09:03:39.524Z,2.22
2023-03-15T09:04:41.269Z,2.03
2023-03-15T09:05:42.953Z,2.22
2023-03-15T09:06:44.622Z,2.50
2023-03-15T09:07:46.346Z,2.03
2023-03-15T09:08:47.973Z,1.90
2023-03-15T09:09:49.819Z,2.40
2023-03-15T09:10:55.904Z,2.03
2023-03-15T09:11:57.649Z,2.30
2023-03-15T09:12:59.276Z,2.15
2023-03-15T09:14:01.837Z,1.80
2023-03-15T09:15:03.635Z,2.53
2023-03-15T09:16:05.578Z,3.05
2023-03-15T09:17:07.340Z,2.00
2023-03-15T09:18:08.977Z,2.22
2023-03-15T09:19:10.660Z,2.00
2023-03-15T09:20:16.921Z,1.60
2023-03-15T09:21:18.651Z,2.10
2023-03-15T09:22:29.208Z,2.53
2023-03-15T09:23:42.629Z,2.08
2023-03-15T09:24:44.230Z,1.88
2023-03-15T09:25:45.922Z,2.97
2023-03-15T09:26:47.529Z,2.30
2023-03-15T09:27:49.172Z,2.00
2023-03-15T09:28:50.828Z,2.30
2023-03-15T09:29:52.424Z,2.40
2023-03-15T09:30:54.598Z,2.35
2023-03-15T09:31:56.419Z,2.20
2023-03-15T09:32:58.202Z,2.25
2023-03-15T09:33:59.842Z,1.88
2023-03-15T09:35:01.702Z,2.35
2023-03-15T09:36:03.957Z,1.67
2023-03-15T09:37:05.652Z,2.03
2023-03-15T09:38:07.261Z,1.97
2023-03-15T09:39:09.552Z,2.63
2023-03-15T09:40:21.887Z,2.55
2023-03-15T09:41:35.752Z,2.80
2023-03-15T09:42:46.121Z,2.17
2023-03-15T09:44:02.826Z,1.98
2023-03-15T09:45:10.840Z,1.85
2023-03-15T09:46:26.048Z,1.80
2023-03-15T09:47:36.678Z,2.13
2023-03-15T09:48:40.517Z,3.05
2023-03-15T09:49:49.804Z,2.10
2023-03-15T09:50:51.360Z,1.88
2023-03-15T09:51:59.535Z,1.80
2023-03-15T09:53:12.049Z,2.90
2023-03-15T09:54:23.787Z,2.40
2023-03-15T09:55:28.620Z,1.80
2023-03-15T09:56:36.766Z,1.90
2023-03-15T09:58:01.153Z,2.30
2023-03-15T09:59:03.182Z,2.60
2023-03-15T10:00:09.790Z,1.90
2023-03-15T10:01:12.990Z,2.83
2023-03-15T10:02:25.744Z,2.47
2023-03-15T10:03:39.805Z,1.70
2023-03-15T10:04:42.346Z,2.10
2023-03-15T10:05:45.912Z,1.83
2023-03-15T10:06:49.700Z,1.67
2023-03-15T10:07:52.336Z,2.20
2023-03-15T10:08:58.336Z,2.00
2023-03-15T10:09:59.926Z,2.20
2023-03-15T10:11:12.506Z,2.25
2023-03-15T10:12:31.904Z,2.00
2023-03-15T10:13:38.870Z,1.90
2023-03-15T10:15:04.827Z,2.28
2023-03-15T10:16:18.620Z,2.60
2023-03-15T10:17:35.549Z,2.47
2023-03-15T10:19:18.163Z,2.00
2023-03-15T10:20:25.193Z,2.20
2023-03-15T10:21:32.478Z,2.00
2023-03-15T10:22:41.759Z,2.80
2023-03-15T10:23:52.550Z,2.00
2023-03-15T10:25:04.162Z,2.37
2023-03-15T10:26:06.596Z,2.15
2023-03-15T10:27:33.035Z,2.05
2023-03-15T10:28:37.677Z,1.98
2023-03-15T10:29:39.286Z,1.90
2023-03-15T10:30:46.175Z,2.08
2023-03-15T10:31:47.929Z,2.40
2023-03-15T10:33:09.846Z,2.38
2023-03-15T10:34:14.193Z,1.88
2023-03-15T10:35:16.982Z,1.77
2023-03-15T10:36:21.054Z,2.17
2023-03-15T10:37:24.052Z,2.22
2023-03-15T10:38:25.885Z,2.15
2023-03-15T10:39:27.480Z,1.73
2023-03-15T10:40:42.647Z,2.00
2023-03-15T10:41:48.338Z,1.67
2023-03-15T10:42:50.003Z,1.73
2023-03-15T10:44:02.357Z,2.60
2023-03-15T10:45:21.971Z,2.13
2023-03-15T10:46:24.240Z,1.65
2023-03-15T10:47:26.660Z,1.83
2023-03-15T10:48:29.596Z,2.28
2023-03-15T10:49:35.971Z,1.88
2023-03-15T10:50:38.232Z,2.38
2023-03-15T10:51:41.616Z,2.22
2023-03-15T10:52:43.449Z,1.90
2023-03-15T10:54:12.233Z,2.05
2023-03-15T10:55:18.973Z,2.22
2023-03-15T10:56:24.045Z,2.20
2023-03-15T10:57:25.782Z,1.70
2023-03-15T10:58:31.097Z,2.13
2023-03-15T10:59:36.305Z,1.70
2023-03-15T11:00:38.468Z,2.13
2023-03-15T11:01:40.238Z,2.25
2023-03-15T11:02:48.232Z,2.45
2023-03-15T11:04:09.107Z,1.80
2023-03-15T11:05:12.418Z,2.03
2023-03-15T11:06:21.698Z,2.55
2023-03-15T11:07:23.401Z,1.80
2023-03-15T11:08:35.676Z,1.63
2023-03-15T11:09:45.734Z,1.47
2023-03-15T11:10:55.098Z,2.53
2023-03-15T11:12:01.804Z,1.63
2023-03-15T11:13:10.482Z,1.65
2023-03-15T11:14:12.478Z,2.63
2023-03-15T11:15:15.582Z,1.92
2023-03-15T11:16:17.211Z,2.65
2023-03-15T11:17:23.760Z,1.85
2023-03-15T11:18:53.709Z,1.55
2023-03-15T11:20:13.360Z,2.28
2023-03-15T11:21:15.948Z,2.10
2023-03-15T11:22:17.591Z,1.77
2023-03-15T11:23:22.486Z,1.77
2023-03-15T11:24:31.700Z,2.28
2023-03-15T11:25:33.487Z,2.53
2023-03-15T11:26:36.974Z,2.13
2023-03-15T11:27:38.662Z,4.22
2023-03-15T11:28:40.620Z,3.13
2023-03-15T11:29:52.699Z,3.65
2023-03-15T11:30:55.463Z,2.03
2023-03-15T11:31:57.431Z,1.67
2023-03-15T11:33:02.137Z,2.30
2023-03-15T11:34:05.812Z,1.80
2023-03-15T11:35:10.868Z,1.73
2023-03-15T11:36:20.894Z,1.80
2023-03-15T11:37:25.703Z,2.20
2023-03-15T11:38:35.383Z,1.83
2023-03-15T11:39:45.461Z,2.20
2023-03-15T11:40:49.120Z,2.17
2023-03-15T11:41:59.259Z,2.00
2023-03-15T11:43:26.211Z,2.40
2023-03-15T11:44:34.883Z,1.90
2023-03-15T11:45:47.972Z,1.92
2023-03-15T11:46:56.123Z,2.30
2023-03-15T11:47:59.826Z,1.90
2023-03-15T11:49:24.458Z,1.48
2023-03-15T11:50:26.129Z,1.55
2023-03-15T11:51:29.221Z,2.25
2023-03-15T11:52:30.921Z,1.92
2023-03-15T11:53:36.134Z,1.90
2023-03-15T11:54:37.812Z,2.10
2023-03-15T11:55:39.712Z,1.80
2023-03-15T11:56:44.204Z,2.30
2023-03-15T11:57:47.207Z,1.98
2023-03-15T11:59:06.981Z,1.83
2023-03-15T12:00:21.887Z,1.80
2023-03-15T12:01:26.769Z,2.40
2023-03-15T12:02:28.454Z,2.10
2023-03-15T12:03:35.770Z,1.70
2023-03-15T12:04:47.642Z,1.80
2023-03-15T12:05:51.110Z,2.07
2023-03-15T12:06:56.893Z,2.13
2023-03-15T12:08:00.972Z,1.98
2023-03-15T12:09:03.064Z,1.65
2023-03-15T12:10:04.703Z,1.80
2023-03-15T12:11:29.222Z,1.73
2023-03-15T12:12:30.923Z,1.80
2023-03-15T12:13:32.576Z,1.48
2023-03-15T12:14:35.281Z,1.80
2023-03-15T12:15:36.945Z,1.33
2023-03-15T12:16:41.515Z,1.80
2023-03-15T12:17:55.193Z,1.50
2023-03-15T12:19:01.707Z,1.60
2023-03-15T12:20:12.133Z,2.08
2023-03-15T12:21:35.696Z,1.60
2023-03-15T12:22:37.508Z,1.90
2023-03-15T12:23:57.107Z,1.77
2023-03-15T12:25:01.138Z,1.30
2023-03-15T12:26:02.709Z,1.85
2023-03-15T12:27:06.572Z,2.00
2023-03-15T12:28:10.318Z,1.70
2023-03-15T12:29:23.198Z,2.13
2023-03-15T12:30:32.536Z,1.77
2023-03-15T12:31:56.997Z,1.45
2023-03-15T12:32:58.729Z,1.33
2023-03-15T12:34:01.439Z,1.40
2023-03-15T12:35:15.589Z,1.58
2023-03-15T12:36:41.829Z,1.65
2023-03-15T12:37:51.085Z,1.52
2023-03-15T12:39:17.619Z,1.65
2023-03-15T12:40:20.302Z,1.87
2023-03-15T12:41:40.368Z,1.70
2023-03-15T12:42:41.942Z,1.77
2023-03-15T12:43:46.751Z,1.98
2023-03-15T12:44:48.399Z,1.80
2023-03-15T12:45:50.119Z,1.67
2023-03-15T12:46:51.862Z,1.58
2023-03-15T12:47:53.448Z,1.42
2023-03-15T12:49:25.197Z,1.15
2023-03-15T12:50:43.855Z,1.50
2023-03-15T12:51:57.370Z,1.37
2023-03-15T12:53:00.110Z,1.33
2023-03-15T12:54:04.043Z,1.52
2023-03-15T12:55:15.863Z,1.20
2023-03-15T12:56:42.568Z,1.67
2023-03-15T12:57:54.058Z,1.42
2023-03-15T12:58:59.914Z,2.03
2023-03-15T13:00:08.155Z,1.20
2023-03-15T13:01:10.364Z,1.30
2023-03-15T13:02:42.153Z,1.55
2023-03-15T13:03:44.763Z,2.07
2023-03-15T13:04:49.828Z,1.20
2023-03-15T13:06:10.586Z,1.00
2023-03-15T13:07:22.140Z,1.30
2023-03-15T13:08:25.714Z,1.33
2023-03-15T13:09:42.137Z,1.30
2023-03-15T13:10:52.940Z,1.38
2023-03-15T13:12:15.415Z,0.98
2023-03-15T13:13:49.864Z,1.42
2023-03-15T13:15:04.037Z,1.70
2023-03-15T13:16:23.922Z,1.10
2023-03-15T13:17:40.830Z,1.67
2023-03-15T13:19:06.301Z,1.70
2023-03-15T13:20:13.806Z,1.40
2023-03-15T13:21:19.514Z,1.52
2023-03-15T13:22:55.986Z,1.48
2023-03-15T13:23:58.348Z,0.88
2023-03-15T13:25:09.980Z,1.40
2023-03-15T13:26:33.377Z,1.40
2023-03-15T13:28:06.186Z,1.20
2023-03-15T13:29:27.589Z,1.47
2023-03-15T13:30:48.995Z,1.15
2023-03-15T13:32:08.272Z,1.00
2023-03-15T13:33:31.734Z,1.52
2023-03-15T13:34:34.357Z,1.10
2023-03-15T13:36:06.781Z,1.30
2023-03-15T13:37:16.440Z,1.42
2023-03-15T13:38:35.137Z,1.05
2023-03-15T13:39:36.806Z,1.13
2023-03-15T13:40:46.330Z,1.20
2023-03-15T13:41:47.983Z,1.10
2023-03-15T13:42:49.595Z,1.35
2023-03-15T13:43:53.199Z,1.30
2023-03-15T13:45:12.225Z,1.10
2023-03-15T13:46:13.913Z,1.25
2023-03-15T13:47:24.434Z,1.48
2023-03-15T13:48:33.062Z,1.17
2023-03-15T13:49:35.065Z,1.00
2023-03-15T13:50:36.717Z,1.48
2023-03-15T13:51:39.233Z,1.70
2023-03-15T13:52:41.328Z,1.83
2023-03-15T13:53:49.776Z,1.38
2023-03-15T13:54:52.780Z,1.88
2023-03-15T13:55:55.189Z,1.15
2023-03-15T13:56:58.266Z,1.90
2023-03-15T13:58:00.748Z,1.25
2023-03-15T13:59:03.001Z,1.63
2023-03-15T14:00:17.670Z,1.88
2023-03-15T14:01:19.630Z,2.00
2023-03-15T14:02:25.272Z,1.38
2023-03-15T14:03:26.906Z,1.30
2023-03-15T14:04:28.547Z,1.50
2023-03-15T14:05:36.650Z,1.80
2023-03-15T14:06:38.255Z,1.80
2023-03-15T14:07:41.713Z,1.25
2023-03-15T14:08:43.355Z,1.20
2023-03-15T14:09:44.945Z,1.45
2023-03-15T14:11:07.367Z,1.20
2023-03-15T14:12:22.827Z,1.50
2023-03-15T14:13:25.468Z,2.05
2023-03-15T14:14:28.150Z,1.80
2023-03-15T14:15:30.400Z,1.38
2023-03-15T14:17:03.000Z,1.65
2023-03-15T14:18:08.328Z,1.23